Time;durP1;ratioP1;P1;durP2;ratioP2;P2;SDS_P1;SDS_P2;PMS_P1;PMS_P2;Temp;Humidity;BMP_temperature;BMP_pressure;BME280_temperature;BME280_humidity;BME280_pressure;Samples;Min_cycle;Max_cycle;Signal;HPM_P1;HPM_P2
2021/07/11 00:01:43;;;;;;;16.88;15.18;;;17.60;99.90;;;;;;5063526;28;20020;-57
2021/07/11 00:04:08;;;;;;;18.00;15.70;;;17.60;99.90;;;;;;5062049;28;20017;-57
2021/07/11 00:06:37;;;;;;;17.15;15.35;;;17.60;99.90;;;;;;5065812;28;20028;-57
2021/07/11 00:09:04;;;;;;;17.13;15.25;;;17.50;99.90;;;;;;5061891;28;20013;-57
2021/07/11 00:11:30;;;;;;;18.70;16.42;;;17.50;99.90;;;;;;5063822;28;20119;-57
2021/07/11 00:13:55;;;;;;;20.20;16.08;;;17.50;99.90;;;;;;5061249;28;20104;-57
2021/07/11 00:16:21;;;;;;;18.70;15.35;;;17.40;99.90;;;;;;5059876;28;20489;-57
2021/07/11 00:18:46;;;;;;;16.30;14.55;;;17.40;99.90;;;;;;5063174;28;20024;-57
2021/07/11 00:21:12;;;;;;;18.88;16.17;;;17.40;99.90;;;;;;5061253;28;20025;-57
2021/07/11 00:23:37;;;;;;;18.23;15.52;;;17.40;99.90;;;;;;5062677;28;20032;-57
2021/07/11 00:26:04;;;;;;;19.80;16.92;;;17.40;99.90;;;;;;5060522;28;20028;-57
2021/07/11 00:28:29;;;;;;;20.23;16.35;;;17.40;99.90;;;;;;5067954;28;20086;-57
2021/07/11 00:30:55;;;;;;;20.17;16.70;;;17.40;99.90;;;;;;5062910;28;20118;-57
2021/07/11 00:33:20;;;;;;;22.27;16.70;;;17.40;99.90;;;;;;5062230;28;20027;-57
2021/07/11 00:35:46;;;;;;;17.80;15.90;;;17.40;99.90;;;;;;5062862;28;20426;-57
2021/07/11 00:38:11;;;;;;;19.52;15.82;;;17.40;99.90;;;;;;5060641;28;20032;-57
2021/07/11 00:40:37;;;;;;;18.55;16.20;;;17.40;99.90;;;;;;5062686;28;20367;-57
2021/07/11 00:43:03;;;;;;;18.67;15.88;;;17.40;99.90;;;;;;5061541;28;20060;-57
2021/07/11 00:45:28;;;;;;;19.60;17.23;;;17.40;99.90;;;;;;5062231;28;20456;-57
2021/07/11 00:47:54;;;;;;;20.05;17.25;;;17.40;99.90;;;;;;5062044;28;20021;-57
2021/07/11 00:50:19;;;;;;;20.08;16.25;;;17.40;99.90;;;;;;5062576;28;20210;-57
2021/07/11 00:52:45;;;;;;;18.30;15.68;;;17.40;99.90;;;;;;5061298;28;20063;-57
2021/07/11 00:55:11;;;;;;;20.67;15.93;;;17.50;99.90;;;;;;5049942;28;20021;-57
2021/07/11 00:57:37;;;;;;;17.45;15.25;;;17.50;99.90;;;;;;5066261;28;20020;-56
2021/07/11 01:00:06;;;;;;;17.75;15.88;;;17.50;99.90;;;;;;5061234;28;20390;-57
2021/07/11 01:02:38;;;;;;;18.00;14.98;;;17.50;99.90;;;;;;5060910;28;20112;-57
2021/07/11 01:05:08;;;;;;;19.17;16.38;;;17.50;99.90;;;;;;5061880;28;20472;-57
2021/07/11 01:07:48;;;;;;;19.73;15.98;;;17.50;99.90;;;;;;5062165;28;20029;-56
2021/07/11 01:10:23;;;;;;;23.70;16.02;;;17.50;99.90;;;;;;5058991;28;20104;-57
2021/07/11 01:12:52;;;;;;;18.70;15.48;;;17.50;99.90;;;;;;5064993;28;20032;-57
2021/07/11 01:15:18;;;;;;;17.95;15.52;;;17.50;99.90;;;;;;5036472;28;20033;-57
2021/07/11 01:17:43;;;;;;;20.13;16.15;;;17.40;99.90;;;;;;5054192;28;20037;-57
2021/07/11 01:20:28;;;;;;;20.40;16.10;;;17.40;99.90;;;;;;5061227;28;20474;-57
2021/07/11 01:22:56;;;;;;;20.60;15.57;;;17.40;99.90;;;;;;5032875;28;20021;-57
2021/07/11 01:25:28;;;;;;;18.55;15.73;;;17.30;99.90;;;;;;5034709;28;20059;-57
2021/07/11 01:27:55;;;;;;;20.38;16.65;;;17.30;99.90;;;;;;5032177;28;20029;-57
2021/07/11 01:30:20;;;;;;;19.73;15.45;;;17.40;99.90;;;;;;5035314;28;20047;-57
2021/07/11 01:32:46;;;;;;;21.10;16.25;;;17.40;99.90;;;;;;5034987;28;20029;-58
2021/07/11 01:35:13;;;;;;;18.92;16.92;;;17.30;99.90;;;;;;5037411;28;20545;-57
2021/07/11 01:37:38;;;;;;;18.92;15.85;;;17.30;99.90;;;;;;5031812;28;20471;-57
2021/07/11 01:40:08;;;;;;;19.65;14.88;;;17.30;99.90;;;;;;5035762;28;20029;-57
2021/07/11 01:42:35;;;;;;;18.83;16.80;;;17.30;99.90;;;;;;5035392;28;20117;-57
2021/07/11 01:45:01;;;;;;;18.83;15.75;;;17.30;99.90;;;;;;5043745;28;20024;-57
2021/07/11 01:47:27;;;;;;;19.05;15.20;;;17.30;99.90;;;;;;5041134;28;20470;-57
2021/07/11 01:49:53;;;;;;;17.52;14.80;;;17.30;99.90;;;;;;5039788;28;20048;-57
2021/07/11 01:52:19;;;;;;;17.58;15.80;;;17.30;99.90;;;;;;5042371;28;20028;-57
2021/07/11 01:54:45;;;;;;;21.10;15.82;;;17.20;99.90;;;;;;5033657;28;20022;-57
2021/07/11 01:57:13;;;;;;;20.40;15.82;;;17.20;99.90;;;;;;5044085;28;20033;-57
2021/07/11 01:59:39;;;;;;;17.52;15.63;;;17.30;99.90;;;;;;5037042;28;20120;-57
2021/07/11 02:02:05;;;;;;;19.58;15.38;;;17.30;99.90;;;;;;5042945;28;20144;-57
2021/07/11 02:04:30;;;;;;;16.73;14.90;;;17.30;99.90;;;;;;5037823;28;20026;-57
2021/07/11 02:06:56;;;;;;;18.13;15.18;;;17.30;99.90;;;;;;5040561;28;20026;-57
2021/07/11 02:09:21;;;;;;;18.08;16.15;;;17.30;99.90;;;;;;5043246;28;20043;-57
2021/07/11 02:11:47;;;;;;;19.90;15.45;;;17.30;99.90;;;;;;5037151;28;20111;-57
2021/07/11 02:14:15;;;;;;;19.83;16.70;;;17.30;99.90;;;;;;5043458;28;20032;-57
2021/07/11 02:17:09;;;;;;;18.48;15.60;;;17.30;99.90;;;;;;5036329;28;20506;-57
2021/07/11 02:19:37;;;;;;;16.77;14.98;;;17.30;99.90;;;;;;5035023;28;20054;-57
2021/07/11 02:22:03;;;;;;;16.83;15.13;;;17.30;99.90;;;;;;5042591;28;20387;-57
2021/07/11 02:24:34;;;;;;;17.23;15.43;;;17.30;99.90;;;;;;5046488;28;20024;-57
2021/07/11 02:27:00;;;;;;;17.70;15.13;;;17.40;99.90;;;;;;5052945;28;20493;-57
2021/07/11 02:29:28;;;;;;;17.20;15.40;;;17.30;99.90;;;;;;5046493;28;20025;-57
2021/07/11 02:31:54;;;;;;;17.20;15.00;;;17.40;99.90;;;;;;5057727;28;20060;-57
2021/07/11 02:34:19;;;;;;;20.42;16.85;;;17.40;99.90;;;;;;5049796;28;20051;-57
2021/07/11 02:36:51;;;;;;;17.05;15.25;;;17.40;99.90;;;;;;5039721;28;20033;-57
2021/07/11 02:39:19;;;;;;;17.27;15.38;;;17.40;99.90;;;;;;5051851;28;20028;-57
2021/07/11 02:42:02;;;;;;;17.92;15.15;;;17.40;99.90;;;;;;5045285;28;20029;-57
2021/07/11 02:44:29;;;;;;;16.92;15.15;;;17.40;99.90;;;;;;5045093;28;20020;-57
2021/07/11 02:46:59;;;;;;;16.17;14.48;;;17.40;99.90;;;;;;5046688;28;20056;-57
2021/07/11 02:49:26;;;;;;;;;;;17.40;99.90;;;;;;5046188;28;20382;-57
2021/07/11 02:51:53;;;;;;;20.13;16.42;;;17.40;99.90;;;;;;5049456;28;20382;-57
2021/07/11 02:54:30;;;;;;;17.15;15.35;;;17.40;99.90;;;;;;5042721;28;20016;-57
2021/07/11 02:57:00;;;;;;;17.00;15.23;;;17.40;99.90;;;;;;5052525;28;20171;-57
2021/07/11 02:59:26;;;;;;;18.27;16.15;;;17.30;99.90;;;;;;5046660;28;20102;-57
2021/07/11 03:01:52;;;;;;;19.77;15.95;;;17.30;99.90;;;;;;5045379;28;20025;-57
2021/07/11 03:04:20;;;;;;;18.25;15.55;;;17.30;99.90;;;;;;5058652;28;20052;-58
2021/07/11 03:06:46;;;;;;;19.58;16.00;;;17.20;99.90;;;;;;5046358;28;20029;-57
2021/07/11 03:09:11;;;;;;;18.05;16.15;;;17.20;99.90;;;;;;5054718;28;20033;-57
2021/07/11 03:11:40;;;;;;;19.08;16.25;;;17.20;99.90;;;;;;5033575;28;20029;-57
2021/07/11 03:14:09;;;;;;;18.48;15.43;;;17.10;99.90;;;;;;5054378;28;20040;-57
2021/07/11 03:16:42;;;;;;;17.75;15.52;;;17.10;99.90;;;;;;5049158;28;20020;-57
2021/07/11 03:19:08;;;;;;;18.85;15.32;;;17.00;99.90;;;;;;5053742;28;20028;-57
2021/07/11 03:21:33;;;;;;;18.23;15.77;;;17.00;99.90;;;;;;5059958;28;20039;-57
2021/07/11 03:24:01;;;;;;;17.80;16.00;;;16.90;99.90;;;;;;5057734;28;20028;-57
2021/07/11 03:26:28;;;;;;;18.58;16.42;;;16.90;99.90;;;;;;5060165;28;20401;-57
2021/07/11 03:28:54;;;;;;;19.40;14.85;;;16.80;99.90;;;;;;5059400;28;20074;-57
2021/07/11 03:31:22;;;;;;;18.75;16.52;;;16.80;99.90;;;;;;5060381;28;20025;-57
2021/07/11 03:33:53;;;;;;;20.05;17.55;;;16.70;99.90;;;;;;5058687;28;20082;-58
2021/07/11 03:36:20;;;;;;;20.80;17.25;;;16.70;99.90;;;;;;5053528;28;20048;-57
2021/07/11 03:38:57;;;;;;;19.20;17.20;;;16.70;99.90;;;;;;5062259;28;20214;-57
2021/07/11 03:41:29;;;;;;;20.27;16.85;;;16.70;99.90;;;;;;5052117;28;20013;-57
2021/07/11 03:43:58;;;;;;;20.00;17.02;;;16.60;99.90;;;;;;5061685;28;20119;-57
2021/07/11 03:46:27;;;;;;;19.55;17.40;;;16.70;99.90;;;;;;5054742;28;20021;-58
2021/07/11 03:48:58;;;;;;;19.52;17.25;;;16.70;99.90;;;;;;5058395;28;20053;-57
2021/07/11 03:51:27;;;;;;;23.48;19.92;;;16.70;99.90;;;;;;5063854;28;20539;-57
2021/07/11 03:53:56;;;;;;;24.13;18.85;;;16.70;99.90;;;;;;5055514;28;20033;-58
2021/07/11 03:56:26;;;;;;;22.88;19.52;;;16.70;99.90;;;;;;5059613;28;20032;-57
2021/07/11 03:58:55;;;;;;;23.17;18.60;;;16.70;99.90;;;;;;5057480;28;20514;-58
2021/07/11 04:01:24;;;;;;;21.98;18.52;;;16.70;99.90;;;;;;5062686;28;20025;-57
2021/07/11 04:03:50;;;;;;;22.05;18.08;;;16.70;99.90;;;;;;5054983;28;20052;-57
2021/07/11 04:06:18;;;;;;;20.35;17.15;;;16.70;99.90;;;;;;5064084;28;20025;-57
2021/07/11 04:08:45;;;;;;;21.00;18.33;;;16.70;99.90;;;;;;5055869;28;20017;-58
2021/07/11 04:11:14;;;;;;;21.88;17.75;;;16.70;99.90;;;;;;5058584;28;20639;-58
2021/07/11 04:13:40;;;;;;;20.98;17.88;;;16.70;99.90;;;;;;5058655;28;20154;-57
2021/07/11 04:16:08;;;;;;;20.58;18.33;;;16.70;99.90;;;;;;5055027;28;20037;-57
2021/07/11 04:18:38;;;;;;;18.95;16.27;;;16.70;99.90;;;;;;5059188;28;20385;-57
2021/07/11 04:21:05;;;;;;;21.15;18.52;;;16.70;99.90;;;;;;5057362;28;20083;-57
2021/07/11 04:23:33;;;;;;;19.65;17.27;;;16.80;99.90;;;;;;5057429;28;20470;-57
2021/07/11 04:25:59;;;;;;;23.27;19.25;;;16.80;99.90;;;;;;5057835;28;20504;-58
2021/07/11 04:28:28;;;;;;;22.58;19.73;;;16.80;99.90;;;;;;5062577;28;20050;-57
2021/07/11 04:30:53;;;;;;;20.95;18.42;;;16.80;99.90;;;;;;5058551;28;20039;-57
2021/07/11 04:33:19;;;;;;;22.48;18.70;;;16.90;99.90;;;;;;5058597;28;20024;-57
2021/07/11 04:35:45;;;;;;;22.20;19.83;;;16.90;99.90;;;;;;5062857;28;20028;-57
2021/07/11 04:38:10;;;;;;;20.73;18.33;;;16.90;99.90;;;;;;5060617;28;20482;-57
2021/07/11 04:40:38;;;;;;;21.73;18.02;;;17.00;99.90;;;;;;5062732;28;20134;-57
2021/07/11 04:43:03;;;;;;;20.30;18.17;;;17.00;99.90;;;;;;5058642;28;20032;-61
2021/07/11 04:45:29;;;;;;;19.88;17.77;;;17.00;99.90;;;;;;5055022;28;20386;-58
2021/07/11 04:47:54;;;;;;;19.70;17.55;;;17.00;99.90;;;;;;5032157;28;20021;-57
2021/07/11 04:50:20;;;;;;;21.50;19.08;;;17.10;99.90;;;;;;5037502;28;20077;-57
2021/07/11 04:52:46;;;;;;;21.65;17.48;;;17.10;99.90;;;;;;5033849;28;20129;-58
2021/07/11 04:55:13;;;;;;;20.55;17.95;;;17.20;99.90;;;;;;5040788;28;20060;-58
2021/07/11 04:57:39;;;;;;;21.20;17.88;;;17.30;99.90;;;;;;5039678;28;20459;-57
2021/07/11 05:00:11;;;;;;;23.02;18.60;;;17.40;99.90;;;;;;5040952;28;20029;-56
2021/07/11 05:02:37;;;;;;;21.33;18.15;;;17.50;99.90;;;;;;5034504;28;20033;-57
2021/07/11 05:05:04;;;;;;;23.60;18.90;;;17.60;99.90;;;;;;5033113;28;20033;-57
2021/07/11 05:07:30;;;;;;;22.27;17.15;;;17.70;99.90;;;;;;5034519;28;20025;-57
2021/07/11 05:09:55;;;;;;;18.15;16.33;;;17.70;99.90;;;;;;5034946;28;20152;-57
2021/07/11 05:12:21;;;;;;;20.85;17.75;;;17.80;99.90;;;;;;5033882;28;20038;-57
2021/07/11 05:14:47;;;;;;;18.70;16.75;;;17.90;99.90;;;;;;5033085;28;20021;-57
2021/07/11 05:17:12;;;;;;;23.02;17.98;;;17.90;99.90;;;;;;5034894;28;20024;-57
2021/07/11 05:19:38;;;;;;;19.30;17.20;;;18.00;99.90;;;;;;5033946;28;20037;-58
2021/07/11 05:22:04;;;;;;;19.98;17.52;;;18.10;99.90;;;;;;5041285;28;20017;-58
2021/07/11 05:24:30;;;;;;;19.75;16.77;;;18.10;99.90;;;;;;5036994;28;20154;-58
2021/07/11 05:26:56;;;;;;;18.95;16.95;;;18.10;99.90;;;;;;5040837;28;20119;-57
2021/07/11 05:29:21;;;;;;;19.70;17.60;;;18.20;99.90;;;;;;5040947;28;20036;-58
2021/07/11 05:31:47;;;;;;;19.10;16.75;;;18.20;99.90;;;;;;5036719;28;20045;-58
2021/07/11 05:34:12;;;;;;;19.25;17.17;;;18.20;99.90;;;;;;5041272;28;20024;-58
2021/07/11 05:36:38;;;;;;;19.25;16.05;;;18.20;99.90;;;;;;5035020;28;20049;-58
2021/07/11 05:39:04;;;;;;;18.52;16.45;;;18.30;99.90;;;;;;5038918;28;20029;-58
2021/07/11 05:41:30;;;;;;;18.00;15.45;;;18.30;99.90;;;;;;5038630;28;20025;-57
2021/07/11 05:43:55;;;;;;;20.25;17.33;;;18.30;99.90;;;;;;5039723;28;20486;-57
2021/07/11 05:46:21;;;;;;;17.65;15.57;;;18.30;99.90;;;;;;5035109;28;20087;-56
2021/07/11 05:48:46;;;;;;;18.25;16.15;;;18.40;99.90;;;;;;5032526;28;20025;-57
2021/07/11 05:51:12;;;;;;;20.83;18.63;;;18.40;99.90;;;;;;5035831;28;20107;-57
2021/07/11 05:53:37;;;;;;;20.50;17.13;;;18.40;99.90;;;;;;5030297;28;20087;-57
2021/07/11 05:56:03;;;;;;;23.90;17.50;;;18.50;99.90;;;;;;5032020;28;20071;-56
2021/07/11 05:58:29;;;;;;;21.73;17.98;;;18.50;99.90;;;;;;5030707;28;20031;-58
2021/07/11 06:00:54;;;;;;;20.35;16.88;;;18.70;99.90;;;;;;5030694;28;20305;-56
2021/07/11 06:03:20;;;;;;;23.42;18.25;;;18.70;99.90;;;;;;5029866;28;20720;-57
2021/07/11 06:05:46;;;;;;;22.58;16.55;;;18.70;99.90;;;;;;5030583;28;20021;-57
2021/07/11 06:08:12;;;;;;;20.95;17.23;;;18.80;99.90;;;;;;5031770;28;20025;-58
2021/07/11 06:10:38;;;;;;;20.17;18.02;;;18.80;99.90;;;;;;5030636;28;20030;-59
2021/07/11 06:13:04;;;;;;;18.90;16.30;;;18.80;99.90;;;;;;5031743;28;20040;-60
2021/07/11 06:15:30;;;;;;;21.02;18.02;;;18.90;99.90;;;;;;5028879;28;20617;-58
2021/07/11 06:17:55;;;;;;;19.23;17.17;;;19.00;99.90;;;;;;5030041;28;20056;-58
2021/07/11 06:20:22;;;;;;;25.55;20.20;;;19.00;99.90;;;;;;5029834;28;20391;-57
2021/07/11 06:22:48;;;;;;;22.83;19.52;;;19.20;99.90;;;;;;5029319;28;20021;-57
2021/07/11 06:25:14;;;;;;;19.90;17.38;;;19.20;99.90;;;;;;5029479;28;20031;-57
2021/07/11 06:27:42;;;;;;;19.42;17.10;;;19.30;99.90;;;;;;5032925;28;20029;-57
2021/07/11 06:30:09;;;;;;;20.00;17.20;;;19.40;99.90;;;;;;5030252;28;20034;-57
2021/07/11 06:32:36;;;;;;;20.90;16.92;;;19.50;99.90;;;;;;5028472;28;20029;-58
2021/07/11 06:35:03;;;;;;;19.48;16.95;;;19.60;99.90;;;;;;5028595;28;20029;-57
2021/07/11 06:37:29;;;;;;;25.20;17.27;;;19.70;99.90;;;;;;5028754;28;20087;-57
2021/07/11 06:39:54;;;;;;;22.00;18.40;;;19.80;99.90;;;;;;5029324;28;20030;-57
2021/07/11 06:42:19;;;;;;;18.88;16.55;;;19.90;99.90;;;;;;5028788;28;20094;-57
2021/07/11 06:44:45;;;;;;;18.73;16.55;;;20.00;99.90;;;;;;5030015;28;20399;-58
2021/07/11 06:47:10;;;;;;;18.45;15.95;;;20.20;99.90;;;;;;5033474;28;20028;-57
2021/07/11 06:49:36;;;;;;;18.40;16.52;;;20.30;99.90;;;;;;5031512;28;20040;-58
2021/07/11 06:52:05;;;;;;;17.95;15.13;;;20.50;99.90;;;;;;5034184;28;20053;-58
2021/07/11 06:54:31;;;;;;;17.75;15.88;;;20.70;99.90;;;;;;5036659;28;20599;-58
2021/07/11 06:56:56;;;;;;;17.10;15.30;;;20.70;99.90;;;;;;5050067;28;20022;-58
2021/07/11 06:59:22;;;;;;;18.02;16.13;;;20.90;99.90;;;;;;5053410;28;20087;-58
2021/07/11 07:01:48;;;;;;;16.42;14.73;;;21.10;99.90;;;;;;5049691;28;20380;-58
2021/07/11 07:04:13;;;;;;;19.52;15.77;;;21.20;99.90;;;;;;5048768;28;20066;-58
2021/07/11 07:06:39;;;;;;;19.02;15.85;;;21.30;99.90;;;;;;5054443;28;20359;-58
2021/07/11 07:09:04;;;;;;;18.50;16.17;;;21.40;99.90;;;;;;5049671;28;20134;-58
2021/07/11 07:11:30;;;;;;;16.33;14.63;;;21.70;99.90;;;;;;5048579;28;20035;-58
2021/07/11 07:13:55;;;;;;;16.88;15.02;;;21.90;99.90;;;;;;5046563;28;20043;-58
2021/07/11 07:16:21;;;;;;;21.58;15.52;;;22.10;99.90;;;;;;5045972;28;20057;-58
2021/07/11 07:18:46;;;;;;;18.25;14.75;;;22.40;99.90;;;;;;5032469;28;20025;-59
2021/07/11 07:21:12;;;;;;;15.23;13.63;;;22.60;99.90;;;;;;5047003;28;20138;-58
2021/07/11 07:23:38;;;;;;;18.10;14.68;;;22.90;99.90;;;;;;5046977;28;20112;-58
2021/07/11 07:26:03;;;;;;;16.65;13.82;;;22.90;99.90;;;;;;5039506;28;20032;-58
2021/07/11 07:28:29;;;;;;;16.35;14.75;;;23.00;99.90;;;;;;5046617;28;21126;-59
2021/07/11 07:30:54;;;;;;;16.35;14.75;;;23.10;99.90;;;;;;5041884;28;20402;-58
2021/07/11 07:33:20;;;;;;;14.50;13.10;;;23.20;99.90;;;;;;5054050;28;20312;-60
2021/07/11 07:35:45;;;;;;;14.32;12.70;;;23.30;99.90;;;;;;5052302;28;20123;-59
2021/07/11 07:38:11;;;;;;;18.27;13.68;;;23.50;99.90;;;;;;5035996;28;20051;-59
2021/07/11 07:40:37;;;;;;;14.95;13.32;;;23.80;99.90;;;;;;5046675;28;20034;-59
2021/07/11 07:43:02;;;;;;;15.07;13.52;;;24.10;99.90;;;;;;5039996;28;20028;-59
2021/07/11 07:45:28;;;;;;;15.93;14.07;;;24.30;99.90;;;;;;5051213;28;20115;-59
2021/07/11 07:47:54;;;;;;;14.68;13.18;;;24.40;99.90;;;;;;5041855;28;20108;-59
2021/07/11 07:50:19;;;;;;;14.85;13.25;;;24.40;99.90;;;;;;5042612;28;20459;-59
2021/07/11 07:52:45;;;;;;;14.40;12.25;;;24.60;99.90;;;;;;5038209;28;20087;-59
2021/07/11 07:55:11;;;;;;;14.85;12.77;;;24.80;99.90;;;;;;5037490;28;20033;-60
2021/07/11 07:57:37;;;;;;;13.50;12.20;;;25.00;99.90;;;;;;5047040;28;20047;-59
2021/07/11 08:00:10;;;;;;;16.08;12.48;;;25.10;99.90;;;;;;5042198;28;20028;-59
2021/07/11 08:02:36;;;;;;;14.43;12.32;;;25.30;99.90;;;;;;5053946;28;20096;-59
2021/07/11 08:05:01;;;;;;;15.90;11.30;;;25.30;99.90;;;;;;5046045;28;20101;-60
2021/07/11 08:07:27;;;;;;;13.75;11.45;;;25.40;99.90;;;;;;5054663;28;20024;-60
2021/07/11 08:09:53;;;;;;;12.77;11.18;;;25.30;99.90;;;;;;5052358;28;20024;-59
2021/07/11 08:12:18;;;;;;;12.80;11.60;;;25.10;99.90;;;;;;5048612;28;20398;-59
2021/07/11 08:14:44;;;;;;;12.45;11.25;;;25.00;99.90;;;;;;5056351;28;20027;-60
2021/07/11 08:17:10;;;;;;;12.00;10.80;;;24.90;99.90;;;;;;5052747;28;20440;-59
2021/07/11 08:19:36;;;;;;;12.25;10.93;;;24.80;99.90;;;;;;5058156;28;20025;-59
2021/07/11 08:22:01;;;;;;;12.75;11.45;;;24.90;99.90;;;;;;5066266;28;20040;-59
2021/07/11 08:24:27;;;;;;;12.45;11.15;;;25.10;99.90;;;;;;5059100;28;20387;-59
2021/07/11 08:26:52;;;;;;;12.27;11.07;;;25.30;99.90;;;;;;5066896;28;20059;-59
2021/07/11 08:29:18;;;;;;;12.10;10.90;;;25.90;99.90;;;;;;5064090;28;20025;-60
2021/07/11 08:31:43;;;;;;;11.38;10.25;;;26.60;99.90;;;;;;5066396;28;20490;-60
2021/07/11 08:34:09;;;;;;;9.85;8.95;;;27.20;98.50;;;;;;5058168;28;20035;-60
2021/07/11 08:36:34;;;;;;;10.20;9.20;;;28.00;96.20;;;;;;5059253;28;20029;-60
2021/07/11 08:39:00;;;;;;;11.23;8.07;;;28.90;95.70;;;;;;5065637;28;20028;-60
2021/07/11 08:41:26;;;;;;;9.70;8.68;;;30.00;93.90;;;;;;5058985;28;20166;-58
2021/07/11 08:43:55;;;;;;;9.38;8.45;;;31.00;88.80;;;;;;5064335;28;20033;-58
2021/07/11 08:46:22;;;;;;;8.02;7.32;;;31.90;83.10;;;;;;5059022;28;20039;-58
2021/07/11 08:48:48;;;;;;;8.27;7.43;;;32.40;79.70;;;;;;5066720;28;20031;-58
2021/07/11 08:51:15;;;;;;;7.32;6.72;;;33.10;75.50;;;;;;5058137;28;20387;-58
2021/07/11 08:53:41;;;;;;;8.15;7.28;;;33.30;73.60;;;;;;5053656;28;20029;-58
2021/07/11 08:56:21;;;;;;;7.70;7.03;;;33.70;70.90;;;;;;5058375;28;20148;-58
2021/07/11 08:58:53;;;;;;;7.78;7.07;;;34.10;68.80;;;;;;5056437;28;20505;-58
2021/07/11 09:01:20;;;;;;;7.07;5.18;;;35.00;66.00;;;;;;5052062;28;20563;-58
2021/07/11 09:04:18;;;;;;;6.15;5.55;;;35.30;60.20;;;;;;5057975;28;20501;-58
2021/07/11 09:06:55;;;;;;;6.93;6.43;;;35.90;58.40;;;;;;5041981;28;20486;-58
2021/07/11 09:09:29;;;;;;;6.30;5.80;;;35.50;61.20;;;;;;5050298;28;20103;-58
2021/07/11 09:12:06;;;;;;;6.07;5.57;;;36.20;58.20;;;;;;5060285;28;20031;-58
2021/07/11 09:14:35;;;;;;;5.90;5.40;;;37.00;54.00;;;;;;5061461;28;20120;-58
2021/07/11 09:17:02;;;;;;;5.90;5.00;;;36.10;55.40;;;;;;5058074;28;20351;-58
2021/07/11 09:19:32;;;;;;;5.75;5.00;;;35.70;53.50;;;;;;5057994;28;20029;-58
2021/07/11 09:22:05;;;;;;;6.40;4.82;;;35.80;52.10;;;;;;5064677;28;20424;-58
2021/07/11 09:24:33;;;;;;;4.93;4.53;;;35.20;52.80;;;;;;5056460;28;20056;-58
2021/07/11 09:27:14;;;;;;;5.75;5.10;;;34.80;55.30;;;;;;5065199;28;20450;-58
2021/07/11 09:29:41;;;;;;;4.90;4.50;;;35.00;56.10;;;;;;5062400;28;20475;-58
2021/07/11 09:32:08;;;;;;;4.72;4.28;;;35.60;53.30;;;;;;5066302;28;20031;-58
2021/07/11 09:34:38;;;;;;;5.50;4.70;;;36.80;52.10;;;;;;5057301;28;20064;-58
2021/07/11 09:37:04;;;;;;;5.00;4.50;;;37.50;49.50;;;;;;5059837;28;20486;-58
2021/07/11 09:39:29;;;;;;;5.15;4.75;;;37.80;47.30;;;;;;5061537;28;20025;-58
2021/07/11 09:41:55;;;;;;;5.18;4.78;;;36.60;47.40;;;;;;5058673;28;20021;-58
2021/07/11 09:44:21;;;;;;;5.20;4.80;;;34.90;50.50;;;;;;5064461;28;20387;-58
2021/07/11 09:46:46;;;;;;;7.13;5.20;;;33.60;52.30;;;;;;5056710;28;20476;-58
2021/07/11 09:49:18;;;;;;;4.88;4.43;;;32.90;54.70;;;;;;5066417;28;20071;-58
2021/07/11 09:51:44;;;;;;;5.38;4.88;;;33.90;53.70;;;;;;5058193;28;20391;-58
2021/07/11 09:54:12;;;;;;;4.55;4.15;;;34.80;56.10;;;;;;5060030;28;20028;-58
2021/07/11 09:56:40;;;;;;;4.00;3.70;;;35.80;50.30;;;;;;5061557;28;20027;-58
2021/07/11 09:59:09;;;;;;;3.50;3.20;;;35.30;48.20;;;;;;5061546;28;20033;-59
2021/07/11 10:01:36;;;;;;;3.72;3.42;;;34.20;49.00;;;;;;5061722;28;20029;-60
2021/07/11 10:04:03;;;;;;;3.83;3.53;;;33.30;51.20;;;;;;5058713;28;20383;-60
2021/07/11 10:06:30;;;;;;;5.03;3.70;;;33.60;52.80;;;;;;5069889;28;20024;-59
2021/07/11 10:08:58;;;;;;;4.63;3.28;;;34.60;51.70;;;;;;5058898;28;20029;-59
2021/07/11 10:11:25;;;;;;;4.95;2.90;;;35.60;48.20;;;;;;5061503;28;20028;-60
2021/07/11 10:13:52;;;;;;;5.18;3.20;;;36.10;47.50;;;;;;5058843;28;20029;-60
2021/07/11 10:16:19;;;;;;;3.33;3.10;;;36.60;46.60;;;;;;5051800;28;20013;-59
2021/07/11 10:18:46;;;;;;;4.32;3.33;;;36.40;47.20;;;;;;5060867;28;20044;-60
2021/07/11 10:21:13;;;;;;;4.10;3.58;;;36.10;48.10;;;;;;5059317;28;20078;-60
2021/07/11 10:23:40;;;;;;;3.60;3.30;;;35.20;49.30;;;;;;5059265;28;20426;-59
2021/07/11 10:26:14;;;;;;;4.25;3.33;;;35.10;48.30;;;;;;5059313;28;20020;-59
2021/07/11 10:28:42;;;;;;;4.13;3.30;;;34.40;50.00;;;;;;5065880;28;20051;-59
2021/07/11 10:31:24;;;;;;;3.78;3.47;;;33.60;52.00;;;;;;5062788;28;20029;-60
2021/07/11 10:33:53;;;;;;;3.75;3.45;;;34.20;52.00;;;;;;5060179;28;20029;-60
2021/07/11 10:36:29;;;;;;;3.75;3.45;;;34.50;51.00;;;;;;5054637;28;20478;-60
2021/07/11 10:38:57;;;;;;;3.53;3.22;;;34.70;48.80;;;;;;5063558;28;20171;-59
2021/07/11 10:41:28;;;;;;;5.65;3.30;;;34.00;49.90;;;;;;5057277;28;20419;-59
2021/07/11 10:44:17;;;;;;;7.10;4.10;;;33.00;50.00;;;;;;5064044;28;20047;-59
2021/07/11 10:47:00;;;;;;;3.90;3.50;;;32.10;52.90;;;;;;5057085;28;20487;-59
2021/07/11 10:49:34;;;;;;;5.55;4.15;;;31.40;53.90;;;;;;5048824;28;20040;-59
2021/07/11 10:52:05;;;;;;;3.95;3.55;;;31.00;53.80;;;;;;5055941;28;20470;-59
2021/07/11 10:54:36;;;;;;;4.47;3.83;;;30.50;55.00;;;;;;5059766;28;20028;-59
2021/07/11 10:57:04;;;;;;;6.50;3.95;;;30.30;54.70;;;;;;5059643;28;20017;-59
2021/07/11 10:59:37;;;;;;;4.35;4.03;;;30.30;56.80;;;;;;5060552;28;20051;-59
2021/07/11 11:02:19;;;;;;;4.88;4.25;;;30.50;55.20;;;;;;5057922;28;20636;-59
2021/07/11 11:04:46;;;;;;;5.10;4.55;;;30.30;55.80;;;;;;5059491;28;20021;-59
2021/07/11 11:07:16;;;;;;;5.60;4.60;;;30.50;56.50;;;;;;5060006;28;20060;-60
2021/07/11 11:09:46;;;;;;;5.50;3.90;;;30.80;55.30;;;;;;5059020;28;20025;-59
2021/07/11 11:12:21;;;;;;;4.40;4.00;;;31.00;58.30;;;;;;5058340;28;20032;-60
2021/07/11 11:14:58;;;;;;;4.55;4.15;;;32.50;54.60;;;;;;5058177;28;20570;-59
2021/07/11 11:17:35;;;;;;;4.90;3.70;;;33.10;52.90;;;;;;5053240;28;20032;-59
2021/07/11 11:20:06;;;;;;;4.78;4.28;;;32.90;52.50;;;;;;5055738;28;20025;-59
2021/07/11 11:22:32;;;;;;;4.30;3.90;;;32.90;53.70;;;;;;5059504;28;20021;-59
2021/07/11 11:24:58;;;;;;;4.90;3.95;;;32.70;55.00;;;;;;5057088;28;20104;-59
2021/07/11 11:27:38;;;;;;;5.13;4.35;;;32.50;53.80;;;;;;5062748;28;20624;-59
2021/07/11 11:30:12;;;;;;;7.07;4.78;;;32.10;54.40;;;;;;5056530;28;20044;-59
2021/07/11 11:32:37;;;;;;;6.00;4.70;;;31.30;56.30;;;;;;5062134;28;20087;-59
2021/07/11 11:35:04;;;;;;;5.85;4.97;;;30.80;57.00;;;;;;5057029;28;20175;-59
2021/07/11 11:37:32;;;;;;;7.70;4.63;;;30.30;59.10;;;;;;5059861;28;20064;-59
2021/07/11 11:40:04;;;;;;;7.03;3.95;;;30.00;59.70;;;;;;5057885;28;20467;-59
2021/07/11 11:42:29;;;;;;;3.80;3.50;;;29.30;58.40;;;;;;5059754;28;20497;-59
2021/07/11 11:45:08;;;;;;;6.57;3.42;;;29.30;60.50;;;;;;5056368;28;20052;-59
2021/07/11 11:47:35;;;;;;;4.18;3.17;;;29.30;58.90;;;;;;5059687;28;20033;-60
2021/07/11 11:50:19;;;;;;;3.17;2.88;;;29.20;60.40;;;;;;5062057;28;20028;-59
2021/07/11 11:52:45;;;;;;;3.85;3.03;;;29.10;58.60;;;;;;5062792;28;20494;-59
2021/07/11 11:55:14;;;;;;;5.15;2.78;;;29.10;58.70;;;;;;5057028;28;20031;-59
2021/07/11 11:57:41;;;;;;;3.60;3.30;;;29.20;58.90;;;;;;5058581;28;20063;-59
2021/07/11 12:00:18;;;;;;;4.18;3.25;;;29.20;59.60;;;;;;5059907;28;20729;-59
2021/07/11 12:02:45;;;;;;;7.82;3.58;;;29.30;57.90;;;;;;5058428;28;20024;-59
2021/07/11 12:05:15;;;;;;;4.05;3.33;;;29.30;58.00;;;;;;5058609;28;20028;-59
2021/07/11 12:07:41;;;;;;;3.13;2.92;;;29.60;59.20;;;;;;5059610;28;20029;-59
2021/07/11 12:10:08;;;;;;;5.50;3.28;;;29.90;57.30;;;;;;5057654;28;20025;-59
2021/07/11 12:12:34;;;;;;;4.93;3.15;;;29.90;57.50;;;;;;5060027;28;20119;-59
2021/07/11 12:15:00;;;;;;;3.50;3.20;;;30.00;56.50;;;;;;5057897;28;20120;-59
2021/07/11 12:17:33;;;;;;;4.22;3.75;;;29.80;56.20;;;;;;5053322;28;20309;-59
2021/07/11 12:19:59;;;;;;;5.05;3.15;;;29.50;59.30;;;;;;5056628;28;20021;-59
2021/07/11 12:22:30;;;;;;;6.72;3.10;;;29.60;58.90;;;;;;5061337;28;20028;-59
2021/07/11 12:25:13;;;;;;;3.03;2.72;;;29.40;57.50;;;;;;5056040;28;20485;-59
2021/07/11 12:27:41;;;;;;;6.20;3.13;;;29.50;57.50;;;;;;5056507;28;20025;-59
2021/07/11 12:30:10;;;;;;;6.38;3.10;;;29.50;58.20;;;;;;5060285;28;20410;-60
2021/07/11 12:32:45;;;;;;;3.03;2.67;;;29.80;58.70;;;;;;5061432;28;20028;-59
2021/07/11 12:35:11;;;;;;;4.43;3.10;;;30.40;59.00;;;;;;5057647;28;20379;-59
2021/07/11 12:37:58;;;;;;;5.63;2.78;;;31.00;56.70;;;;;;5059363;28;20068;-59